sensor_id;sensor_type;location;lat;lon;timestamp;temperature;humidity
546;DHT22;259;53.304;9.816;2023-02-15T00:01:50;14.70;64.50
546;DHT22;259;53.304;9.816;2023-02-15T00:04:19;14.70;64.60
546;DHT22;259;53.304;9.816;2023-02-15T00:06:46;14.70;65.50
546;DHT22;259;53.304;9.816;2023-02-15T00:09:12;14.60;64.60
546;DHT22;259;53.304;9.816;2023-02-15T00:11:38;14.60;64.60
546;DHT22;259;53.304;9.816;2023-02-15T00:14:21;14.60;64.80
546;DHT22;259;53.304;9.816;2023-02-15T00:16:49;14.60;64.80
546;DHT22;259;53.304;9.816;2023-02-15T00:19:18;14.50;64.70
546;DHT22;259;53.304;9.816;2023-02-15T00:21:46;14.50;64.70
546;DHT22;259;53.304;9.816;2023-02-15T00:24:14;14.50;64.80
546;DHT22;259;53.304;9.816;2023-02-15T00:26:42;14.50;64.90
546;DHT22;259;53.304;9.816;2023-02-15T00:29:09;14.40;64.90
546;DHT22;259;53.304;9.816;2023-02-15T00:31:36;14.40;64.80
546;DHT22;259;53.304;9.816;2023-02-15T00:34:09;14.40;65.60
546;DHT22;259;53.304;9.816;2023-02-15T00:36:37;14.40;65.00
546;DHT22;259;53.304;9.816;2023-02-15T00:39:03;14.40;65.10
546;DHT22;259;53.304;9.816;2023-02-15T00:41:30;14.30;64.90
546;DHT22;259;53.304;9.816;2023-02-15T00:43:56;14.30;65.00
546;DHT22;259;53.304;9.816;2023-02-15T00:46:22;14.30;65.10
546;DHT22;259;53.304;9.816;2023-02-15T00:48:49;14.30;65.10
546;DHT22;259;53.304;9.816;2023-02-15T00:51:15;14.30;65.80
546;DHT22;259;53.304;9.816;2023-02-15T00:53:42;14.20;65.00
546;DHT22;259;53.304;9.816;2023-02-15T00:56:09;14.20;65.10
546;DHT22;259;53.304;9.816;2023-02-15T00:58:35;14.20;65.10
546;DHT22;259;53.304;9.816;2023-02-15T01:01:15;14.20;65.20
546;DHT22;259;53.304;9.816;2023-02-15T01:03:42;14.20;65.20
546;DHT22;259;53.304;9.816;2023-02-15T01:06:10;14.20;65.20
546;DHT22;259;53.304;9.816;2023-02-15T01:08:36;14.10;65.10
546;DHT22;259;53.304;9.816;2023-02-15T01:11:07;14.10;65.20
546;DHT22;259;53.304;9.816;2023-02-15T01:13:34;14.10;65.30
546;DHT22;259;53.304;9.816;2023-02-15T01:16:01;14.10;65.40
546;DHT22;259;53.304;9.816;2023-02-15T01:18:27;14.00;65.20
546;DHT22;259;53.304;9.816;2023-02-15T01:20:53;14.00;65.40
546;DHT22;259;53.304;9.816;2023-02-15T01:23:19;14.00;65.40
546;DHT22;259;53.304;9.816;2023-02-15T01:25:44;14.00;65.40
546;DHT22;259;53.304;9.816;2023-02-15T01:28:10;14.00;65.60
546;DHT22;259;53.304;9.816;2023-02-15T01:30:36;13.90;65.40
546;DHT22;259;53.304;9.816;2023-02-15T01:33:02;13.90;65.40
546;DHT22;259;53.304;9.816;2023-02-15T01:35:28;13.90;65.60
546;DHT22;259;53.304;9.816;2023-02-15T01:37:55;13.80;65.60
546;DHT22;259;53.304;9.816;2023-02-15T01:40:21;13.80;65.80
546;DHT22;259;53.304;9.816;2023-02-15T01:42:51;13.80;65.90
546;DHT22;259;53.304;9.816;2023-02-15T01:45:26;13.70;65.90
546;DHT22;259;53.304;9.816;2023-02-15T01:51:00;13.70;66.00
546;DHT22;259;53.304;9.816;2023-02-15T01:53:43;13.70;65.80
546;DHT22;259;53.304;9.816;2023-02-15T01:56:20;13.70;65.70
546;DHT22;259;53.304;9.816;2023-02-15T01:58:49;13.70;65.70
546;DHT22;259;53.304;9.816;2023-02-15T02:01:15;13.70;65.70
546;DHT22;259;53.304;9.816;2023-02-15T02:04:11;13.70;65.80
546;DHT22;259;53.304;9.816;2023-02-15T02:06:41;13.60;65.60
546;DHT22;259;53.304;9.816;2023-02-15T02:09:07;13.60;65.60
546;DHT22;259;53.304;9.816;2023-02-15T02:11:33;13.60;65.80
546;DHT22;259;53.304;9.816;2023-02-15T02:14:00;13.60;65.80
546;DHT22;259;53.304;9.816;2023-02-15T02:31:18;13.40;65.90
546;DHT22;259;53.304;9.816;2023-02-15T02:37:42;13.40;66.00
546;DHT22;259;53.304;9.816;2023-02-15T02:40:41;13.40;66.20
546;DHT22;259;53.304;9.816;2023-02-15T02:43:34;13.30;66.00
546;DHT22;259;53.304;9.816;2023-02-15T02:46:12;13.30;66.00
546;DHT22;259;53.304;9.816;2023-02-15T02:48:43;13.30;66.00
546;DHT22;259;53.304;9.816;2023-02-15T02:51:09;13.30;66.00
546;DHT22;259;53.304;9.816;2023-02-15T02:53:34;13.20;66.00
546;DHT22;259;53.304;9.816;2023-02-15T02:56:17;13.20;66.10
546;DHT22;259;53.304;9.816;2023-02-15T02:58:55;13.20;66.10
546;DHT22;259;53.304;9.816;2023-02-15T03:01:35;13.20;66.20
546;DHT22;259;53.304;9.816;2023-02-15T03:04:11;13.20;66.30
546;DHT22;259;53.304;9.816;2023-02-15T03:09:38;13.10;66.10
546;DHT22;259;53.304;9.816;2023-02-15T03:12:19;13.10;66.00
546;DHT22;259;53.304;9.816;2023-02-15T03:15:00;13.10;66.10
546;DHT22;259;53.304;9.816;2023-02-15T03:17:31;13.10;66.10
546;DHT22;259;53.304;9.816;2023-02-15T03:20:03;13.00;66.30
546;DHT22;259;53.304;9.816;2023-02-15T03:22:37;13.00;66.20
546;DHT22;259;53.304;9.816;2023-02-15T03:25:30;13.00;66.20
546;DHT22;259;53.304;9.816;2023-02-15T03:28:08;13.00;66.30
546;DHT22;259;53.304;9.816;2023-02-15T03:30:38;13.00;66.30
546;DHT22;259;53.304;9.816;2023-02-15T03:33:06;12.90;66.30
546;DHT22;259;53.304;9.816;2023-02-15T03:35:50;12.90;66.30
546;DHT22;259;53.304;9.816;2023-02-15T03:38:23;12.90;66.30
546;DHT22;259;53.304;9.816;2023-02-15T03:40:53;12.90;66.30
546;DHT22;259;53.304;9.816;2023-02-15T03:44:11;12.90;66.40
546;DHT22;259;53.304;9.816;2023-02-15T03:46:41;12.80;66.30
546;DHT22;259;53.304;9.816;2023-02-15T03:51:42;12.80;66.50
546;DHT22;259;53.304;9.816;2023-02-15T03:57:05;12.70;66.30
546;DHT22;259;53.304;9.816;2023-02-15T03:59:51;12.70;66.40
546;DHT22;259;53.304;9.816;2023-02-15T04:02:52;12.70;66.50
546;DHT22;259;53.304;9.816;2023-02-15T04:05:25;12.70;66.40
546;DHT22;259;53.304;9.816;2023-02-15T04:07:50;12.70;66.40
546;DHT22;259;53.304;9.816;2023-02-15T04:10:16;12.70;66.40
546;DHT22;259;53.304;9.816;2023-02-15T04:13:00;12.60;66.50
546;DHT22;259;53.304;9.816;2023-02-15T04:15:26;12.60;66.40
546;DHT22;259;53.304;9.816;2023-02-15T04:18:10;12.60;66.40
546;DHT22;259;53.304;9.816;2023-02-15T04:20:36;12.60;66.50
546;DHT22;259;53.304;9.816;2023-02-15T04:23:20;12.60;66.50
546;DHT22;259;53.304;9.816;2023-02-15T04:26:04;12.50;66.40
546;DHT22;259;53.304;9.816;2023-02-15T04:28:30;12.50;66.40
546;DHT22;259;53.304;9.816;2023-02-15T04:30:56;12.50;66.50
546;DHT22;259;53.304;9.816;2023-02-15T04:33:22;12.50;66.60
546;DHT22;259;53.304;9.816;2023-02-15T04:35:48;12.50;66.40
546;DHT22;259;53.304;9.816;2023-02-15T04:38:13;12.50;66.40
546;DHT22;259;53.304;9.816;2023-02-15T04:40:39;12.40;66.50
546;DHT22;259;53.304;9.816;2023-02-15T04:43:05;12.40;66.30
546;DHT22;259;53.304;9.816;2023-02-15T04:45:30;12.40;66.50
546;DHT22;259;53.304;9.816;2023-02-15T04:47:56;12.40;66.50
546;DHT22;259;53.304;9.816;2023-02-15T04:50:22;12.30;67.20
546;DHT22;259;53.304;9.816;2023-02-15T04:52:47;12.40;66.60
546;DHT22;259;53.304;9.816;2023-02-15T04:55:13;12.30;66.50
546;DHT22;259;53.304;9.816;2023-02-15T04:57:39;12.30;66.50
546;DHT22;259;53.304;9.816;2023-02-15T05:00:05;12.30;66.40
546;DHT22;259;53.304;9.816;2023-02-15T05:02:33;12.30;66.50
546;DHT22;259;53.304;9.816;2023-02-15T05:04:59;12.30;66.50
546;DHT22;259;53.304;9.816;2023-02-15T05:07:25;12.30;66.60
546;DHT22;259;53.304;9.816;2023-02-15T05:09:50;12.20;66.50
546;DHT22;259;53.304;9.816;2023-02-15T05:12:16;12.20;66.60
546;DHT22;259;53.304;9.816;2023-02-15T05:14:42;12.20;66.50
546;DHT22;259;53.304;9.816;2023-02-15T05:17:07;12.20;66.60
546;DHT22;259;53.304;9.816;2023-02-15T05:19:33;12.20;66.60
546;DHT22;259;53.304;9.816;2023-02-15T05:21:58;12.10;66.50
546;DHT22;259;53.304;9.816;2023-02-15T05:24:24;12.10;66.60
546;DHT22;259;53.304;9.816;2023-02-15T05:27:25;12.10;66.60
546;DHT22;259;53.304;9.816;2023-02-15T05:30:10;12.10;66.70
546;DHT22;259;53.304;9.816;2023-02-15T05:32:38;12.10;66.80
546;DHT22;259;53.304;9.816;2023-02-15T05:35:05;12.00;66.70
546;DHT22;259;53.304;9.816;2023-02-15T05:37:32;12.00;67.60
546;DHT22;259;53.304;9.816;2023-02-15T05:39:57;12.00;66.80
546;DHT22;259;53.304;9.816;2023-02-15T05:42:23;12.00;66.80
546;DHT22;259;53.304;9.816;2023-02-15T05:44:49;12.00;66.70
546;DHT22;259;53.304;9.816;2023-02-15T05:47:15;11.90;66.70
546;DHT22;259;53.304;9.816;2023-02-15T05:49:40;12.00;66.90
546;DHT22;259;53.304;9.816;2023-02-15T05:52:06;11.90;66.70
546;DHT22;259;53.304;9.816;2023-02-15T05:54:32;11.90;66.90
546;DHT22;259;53.304;9.816;2023-02-15T05:56:58;11.90;67.00
546;DHT22;259;53.304;9.816;2023-02-15T05:59:24;11.90;66.90
546;DHT22;259;53.304;9.816;2023-02-15T06:01:49;11.90;66.80
546;DHT22;259;53.304;9.816;2023-02-15T06:04:15;11.80;66.70
546;DHT22;259;53.304;9.816;2023-02-15T06:06:40;11.80;66.70
546;DHT22;259;53.304;9.816;2023-02-15T06:09:06;11.80;66.70
546;DHT22;259;53.304;9.816;2023-02-15T06:11:32;11.80;66.90
546;DHT22;259;53.304;9.816;2023-02-15T06:13:58;11.80;66.80
546;DHT22;259;53.304;9.816;2023-02-15T06:16:23;11.80;66.70
546;DHT22;259;53.304;9.816;2023-02-15T06:18:49;11.80;66.90
546;DHT22;259;53.304;9.816;2023-02-15T06:21:15;11.80;66.90
546;DHT22;259;53.304;9.816;2023-02-15T06:23:41;11.70;66.80
546;DHT22;259;53.304;9.816;2023-02-15T06:26:08;11.70;66.70
546;DHT22;259;53.304;9.816;2023-02-15T06:28:34;11.70;66.60
546;DHT22;259;53.304;9.816;2023-02-15T06:30:59;11.70;66.80
546;DHT22;259;53.304;9.816;2023-02-15T06:33:25;11.70;66.80
546;DHT22;259;53.304;9.816;2023-02-15T06:35:51;11.60;66.70
546;DHT22;259;53.304;9.816;2023-02-15T06:38:16;11.60;66.90
546;DHT22;259;53.304;9.816;2023-02-15T06:40:42;11.60;66.80
546;DHT22;259;53.304;9.816;2023-02-15T06:43:08;11.60;66.90
546;DHT22;259;53.304;9.816;2023-02-15T06:45:34;11.70;69.50
546;DHT22;259;53.304;9.816;2023-02-15T06:47:59;12.00;69.60
546;DHT22;259;53.304;9.816;2023-02-15T06:50:25;12.20;69.40
546;DHT22;259;53.304;9.816;2023-02-15T06:52:56;12.40;68.90
546;DHT22;259;53.304;9.816;2023-02-15T06:55:22;12.50;74.30
546;DHT22;259;53.304;9.816;2023-02-15T06:57:47;12.60;77.50
546;DHT22;259;53.304;9.816;2023-02-15T07:00:14;12.70;72.50
546;DHT22;259;53.304;9.816;2023-02-15T07:02:39;12.90;70.70
546;DHT22;259;53.304;9.816;2023-02-15T07:05:05;13.00;70.30
546;DHT22;259;53.304;9.816;2023-02-15T07:07:31;13.10;69.70
546;DHT22;259;53.304;9.816;2023-02-15T07:09:57;13.20;68.40
546;DHT22;259;53.304;9.816;2023-02-15T07:12:22;13.30;67.60
546;DHT22;259;53.304;9.816;2023-02-15T07:15:11;13.40;67.40
546;DHT22;259;53.304;9.816;2023-02-15T07:17:38;13.50;66.60
546;DHT22;259;53.304;9.816;2023-02-15T07:20:08;13.60;66.30
546;DHT22;259;53.304;9.816;2023-02-15T07:22:36;13.80;65.80
546;DHT22;259;53.304;9.816;2023-02-15T07:25:07;13.90;70.90
546;DHT22;259;53.304;9.816;2023-02-15T07:27:34;14.00;73.80
546;DHT22;259;53.304;9.816;2023-02-15T07:30:00;14.20;67.70
546;DHT22;259;53.304;9.816;2023-02-15T07:32:33;14.40;66.10
546;DHT22;259;53.304;9.816;2023-02-15T07:34:59;14.70;66.20
546;DHT22;259;53.304;9.816;2023-02-15T07:37:26;15.00;65.80
546;DHT22;259;53.304;9.816;2023-02-15T07:39:52;15.40;63.90
546;DHT22;259;53.304;9.816;2023-02-15T07:42:18;15.90;62.50
546;DHT22;259;53.304;9.816;2023-02-15T07:44:45;16.30;59.80
546;DHT22;259;53.304;9.816;2023-02-15T07:47:11;16.80;58.10
546;DHT22;259;53.304;9.816;2023-02-15T07:49:37;17.20;57.50
546;DHT22;259;53.304;9.816;2023-02-15T07:52:03;17.60;57.00
546;DHT22;259;53.304;9.816;2023-02-15T07:54:29;18.00;56.80
546;DHT22;259;53.304;9.816;2023-02-15T07:56:55;18.50;56.50
546;DHT22;259;53.304;9.816;2023-02-15T07:59:21;18.90;56.00
546;DHT22;259;53.304;9.816;2023-02-15T08:01:47;19.30;55.50
546;DHT22;259;53.304;9.816;2023-02-15T08:04:12;19.60;55.20
546;DHT22;259;53.304;9.816;2023-02-15T08:06:38;19.90;54.80
546;DHT22;259;53.304;9.816;2023-02-15T08:09:07;20.10;54.60
546;DHT22;259;53.304;9.816;2023-02-15T08:11:35;20.40;54.30
546;DHT22;259;53.304;9.816;2023-02-15T08:16:51;20.90;53.80
546;DHT22;259;53.304;9.816;2023-02-15T08:19:22;21.30;53.50
546;DHT22;259;53.304;9.816;2023-02-15T08:21:54;21.50;53.10
546;DHT22;259;53.304;9.816;2023-02-15T08:24:26;21.80;52.80
546;DHT22;259;53.304;9.816;2023-02-15T08:26:53;22.00;52.20
546;DHT22;259;53.304;9.816;2023-02-15T08:29:26;22.10;52.00
546;DHT22;259;53.304;9.816;2023-02-15T08:31:54;22.30;51.70
546;DHT22;259;53.304;9.816;2023-02-15T08:34:24;22.40;51.60
546;DHT22;259;53.304;9.816;2023-02-15T08:36:49;22.40;51.50
546;DHT22;259;53.304;9.816;2023-02-15T08:39:16;22.50;51.50
546;DHT22;259;53.304;9.816;2023-02-15T08:41:44;22.50;51.30
546;DHT22;259;53.304;9.816;2023-02-15T08:44:10;22.40;50.90
546;DHT22;259;53.304;9.816;2023-02-15T08:46:38;22.40;51.00
546;DHT22;259;53.304;9.816;2023-02-15T08:49:05;22.40;51.40
546;DHT22;259;53.304;9.816;2023-02-15T08:51:34;22.40;51.60
546;DHT22;259;53.304;9.816;2023-02-15T08:54:08;22.50;51.90
546;DHT22;259;53.304;9.816;2023-02-15T08:56:37;22.60;52.40
546;DHT22;259;53.304;9.816;2023-02-15T08:59:06;22.80;52.50
546;DHT22;259;53.304;9.816;2023-02-15T09:01:34;23.00;52.50
546;DHT22;259;53.304;9.816;2023-02-15T09:04:05;23.20;52.20
546;DHT22;259;53.304;9.816;2023-02-15T09:06:34;23.30;52.20
546;DHT22;259;53.304;9.816;2023-02-15T09:09:01;23.50;52.10
546;DHT22;259;53.304;9.816;2023-02-15T09:11:30;23.70;52.10
546;DHT22;259;53.304;9.816;2023-02-15T09:14:00;23.90;51.30
546;DHT22;259;53.304;9.816;2023-02-15T09:16:29;24.10;51.20
546;DHT22;259;53.304;9.816;2023-02-15T09:18:57;24.20;51.10
546;DHT22;259;53.304;9.816;2023-02-15T09:21:24;24.30;51.10
546;DHT22;259;53.304;9.816;2023-02-15T09:23:55;24.40;51.00
546;DHT22;259;53.304;9.816;2023-02-15T09:26:24;24.50;50.90
546;DHT22;259;53.304;9.816;2023-02-15T09:28:55;24.50;50.90
546;DHT22;259;53.304;9.816;2023-02-15T09:31:24;24.70;50.90
546;DHT22;259;53.304;9.816;2023-02-15T09:33:52;24.70;50.80
546;DHT22;259;53.304;9.816;2023-02-15T09:36:20;24.70;51.10
546;DHT22;259;53.304;9.816;2023-02-15T09:38:52;24.60;51.20
546;DHT22;259;53.304;9.816;2023-02-15T09:41:34;24.60;51.30
546;DHT22;259;53.304;9.816;2023-02-15T09:44:44;24.60;51.40
546;DHT22;259;53.304;9.816;2023-02-15T09:56:39;24.60;51.70
546;DHT22;259;53.304;9.816;2023-02-15T10:04:42;23.70;47.40
546;DHT22;259;53.304;9.816;2023-02-15T10:07:29;23.60;48.30
546;DHT22;259;53.304;9.816;2023-02-15T10:10:42;23.40;48.90
546;DHT22;259;53.304;9.816;2023-02-15T10:13:39;23.20;49.30
546;DHT22;259;53.304;9.816;2023-02-15T10:19:16;23.00;50.10
546;DHT22;259;53.304;9.816;2023-02-15T10:24:36;22.70;50.80
546;DHT22;259;53.304;9.816;2023-02-15T10:27:14;22.50;51.10
546;DHT22;259;53.304;9.816;2023-02-15T10:30:10;22.40;51.40
546;DHT22;259;53.304;9.816;2023-02-15T10:33:06;22.20;51.70
546;DHT22;259;53.304;9.816;2023-02-15T10:42:30;21.70;52.50
546;DHT22;259;53.304;9.816;2023-02-15T10:48:55;21.40;52.90
546;DHT22;259;53.304;9.816;2023-02-15T10:54:32;21.20;53.30
546;DHT22;259;53.304;9.816;2023-02-15T11:02:45;20.80;53.80
546;DHT22;259;53.304;9.816;2023-02-15T11:08:09;20.60;54.20
546;DHT22;259;53.304;9.816;2023-02-15T11:10:44;20.50;54.30
546;DHT22;259;53.304;9.816;2023-02-15T11:13:16;20.40;54.50
546;DHT22;259;53.304;9.816;2023-02-15T11:15:48;20.30;54.70
546;DHT22;259;53.304;9.816;2023-02-15T11:21:04;20.10;54.90
546;DHT22;259;53.304;9.816;2023-02-15T11:23:42;20.00;55.10
546;DHT22;259;53.304;9.816;2023-02-15T11:29:12;19.80;55.30
546;DHT22;259;53.304;9.816;2023-02-15T11:31:51;19.70;55.40
546;DHT22;259;53.304;9.816;2023-02-15T11:34:35;19.60;55.50
546;DHT22;259;53.304;9.816;2023-02-15T11:37:11;19.50;55.60
546;DHT22;259;53.304;9.816;2023-02-15T11:39:38;19.50;55.80
546;DHT22;259;53.304;9.816;2023-02-15T11:42:13;19.40;55.90
546;DHT22;259;53.304;9.816;2023-02-15T11:44:48;19.30;55.90
546;DHT22;259;53.304;9.816;2023-02-15T11:47:22;19.20;56.00
546;DHT22;259;53.304;9.816;2023-02-15T11:49:48;19.20;56.20
546;DHT22;259;53.304;9.816;2023-02-15T11:52:16;19.10;56.20
546;DHT22;259;53.304;9.816;2023-02-15T11:54:48;19.10;56.40
546;DHT22;259;53.304;9.816;2023-02-15T11:57:28;19.00;56.40
546;DHT22;259;53.304;9.816;2023-02-15T12:00:04;18.90;56.40
546;DHT22;259;53.304;9.816;2023-02-15T12:02:33;18.90;56.60
546;DHT22;259;53.304;9.816;2023-02-15T12:05:09;18.80;56.60
546;DHT22;259;53.304;9.816;2023-02-15T12:07:46;18.80;56.80
546;DHT22;259;53.304;9.816;2023-02-15T12:10:29;18.70;56.80
546;DHT22;259;53.304;9.816;2023-02-15T12:15:41;18.70;57.00
546;DHT22;259;53.304;9.816;2023-02-15T12:20:52;18.60;57.00
546;DHT22;259;53.304;9.816;2023-02-15T12:23:23;18.60;57.10
546;DHT22;259;53.304;9.816;2023-02-15T12:25:54;18.50;57.00
546;DHT22;259;53.304;9.816;2023-02-15T12:31:01;18.50;57.20
546;DHT22;259;53.304;9.816;2023-02-15T12:33:34;18.50;57.20
546;DHT22;259;53.304;9.816;2023-02-15T12:36:03;18.40;57.20
546;DHT22;259;53.304;9.816;2023-02-15T12:38:35;18.40;57.20
546;DHT22;259;53.304;9.816;2023-02-15T12:41:22;18.30;57.30
546;DHT22;259;53.304;9.816;2023-02-15T12:44:14;18.30;57.50
546;DHT22;259;53.304;9.816;2023-02-15T12:46:41;18.20;57.50
546;DHT22;259;53.304;9.816;2023-02-15T12:49:19;18.20;57.70
546;DHT22;259;53.304;9.816;2023-02-15T12:54:29;18.20;57.90
546;DHT22;259;53.304;9.816;2023-02-15T13:05:25;18.20;58.30
546;DHT22;259;53.304;9.816;2023-02-15T13:13:28;18.20;58.30
546;DHT22;259;53.304;9.816;2023-02-15T13:16:09;18.20;58.30
546;DHT22;259;53.304;9.816;2023-02-15T13:18:44;18.30;58.30
546;DHT22;259;53.304;9.816;2023-02-15T13:21:20;18.20;58.30
546;DHT22;259;53.304;9.816;2023-02-15T13:23:51;18.20;58.30
546;DHT22;259;53.304;9.816;2023-02-15T13:26:21;18.30;58.40
546;DHT22;259;53.304;9.816;2023-02-15T13:28:54;18.30;58.40
546;DHT22;259;53.304;9.816;2023-02-15T13:31:24;18.30;58.40
546;DHT22;259;53.304;9.816;2023-02-15T13:33:56;18.30;58.50
546;DHT22;259;53.304;9.816;2023-02-15T13:36:37;18.30;58.50
546;DHT22;259;53.304;9.816;2023-02-15T13:59:58;18.20;59.00
546;DHT22;259;53.304;9.816;2023-02-15T14:23:52;18.20;59.10
546;DHT22;259;53.304;9.816;2023-02-15T14:26:35;18.20;59.10
546;DHT22;259;53.304;9.816;2023-02-15T14:29:16;18.20;59.20
546;DHT22;259;53.304;9.816;2023-02-15T14:32:00;18.10;59.10
546;DHT22;259;53.304;9.816;2023-02-15T14:34:42;18.10;59.20
546;DHT22;259;53.304;9.816;2023-02-15T14:37:12;18.10;59.30
546;DHT22;259;53.304;9.816;2023-02-15T14:40:00;18.00;59.30
546;DHT22;259;53.304;9.816;2023-02-15T14:43:06;18.00;59.40
546;DHT22;259;53.304;9.816;2023-02-15T14:45:58;18.00;59.40
546;DHT22;259;53.304;9.816;2023-02-15T14:48:57;17.90;59.50
546;DHT22;259;53.304;9.816;2023-02-15T15:02:25;17.80;59.70
546;DHT22;259;53.304;9.816;2023-02-15T15:05:09;17.70;60.20
546;DHT22;259;53.304;9.816;2023-02-15T15:07:41;17.70;60.00
546;DHT22;259;53.304;9.816;2023-02-15T15:12:54;17.60;59.60
546;DHT22;259;53.304;9.816;2023-02-15T15:18:10;17.50;59.20
546;DHT22;259;53.304;9.816;2023-02-15T15:38:49;17.30;59.40
546;DHT22;259;53.304;9.816;2023-02-15T15:50:15;17.30;59.60
546;DHT22;259;53.304;9.816;2023-02-15T15:52:47;17.30;59.70
546;DHT22;259;53.304;9.816;2023-02-15T15:55:22;17.20;59.60
546;DHT22;259;53.304;9.816;2023-02-15T15:57:52;17.20;59.70
546;DHT22;259;53.304;9.816;2023-02-15T16:03:15;17.10;59.70
546;DHT22;259;53.304;9.816;2023-02-15T16:05:51;17.20;59.90
546;DHT22;259;53.304;9.816;2023-02-15T16:08:37;17.10;59.90
546;DHT22;259;53.304;9.816;2023-02-15T16:11:15;17.10;60.00
546;DHT22;259;53.304;9.816;2023-02-15T16:13:45;17.10;59.90
546;DHT22;259;53.304;9.816;2023-02-15T16:16:13;17.10;60.00
546;DHT22;259;53.304;9.816;2023-02-15T16:18:39;17.10;60.00
546;DHT22;259;53.304;9.816;2023-02-15T16:21:17;17.00;60.00
546;DHT22;259;53.304;9.816;2023-02-15T16:24:17;17.00;60.00
546;DHT22;259;53.304;9.816;2023-02-15T16:27:04;17.00;60.10
546;DHT22;259;53.304;9.816;2023-02-15T16:29:55;17.00;60.10
546;DHT22;259;53.304;9.816;2023-02-15T16:32:23;17.00;60.20
546;DHT22;259;53.304;9.816;2023-02-15T16:34:55;17.00;60.20
546;DHT22;259;53.304;9.816;2023-02-15T16:37:27;16.90;60.10
546;DHT22;259;53.304;9.816;2023-02-15T16:39:57;16.90;60.20
546;DHT22;259;53.304;9.816;2023-02-15T16:42:22;16.90;60.20
546;DHT22;259;53.304;9.816;2023-02-15T16:44:52;16.90;60.30
546;DHT22;259;53.304;9.816;2023-02-15T16:47:30;16.90;60.30
546;DHT22;259;53.304;9.816;2023-02-15T16:50:00;16.90;60.30
546;DHT22;259;53.304;9.816;2023-02-15T16:52:28;16.90;60.30
546;DHT22;259;53.304;9.816;2023-02-15T16:54:58;16.80;60.20
546;DHT22;259;53.304;9.816;2023-02-15T16:57:34;16.80;60.20
546;DHT22;259;53.304;9.816;2023-02-15T17:00:06;16.80;60.30
546;DHT22;259;53.304;9.816;2023-02-15T17:03:37;16.80;60.30
546;DHT22;259;53.304;9.816;2023-02-15T17:05:42;16.80;60.30
546;DHT22;259;53.304;9.816;2023-02-15T17:08:19;16.80;60.30
546;DHT22;259;53.304;9.816;2023-02-15T17:13:25;16.70;60.30
546;DHT22;259;53.304;9.816;2023-02-15T17:21:20;16.70;60.40
546;DHT22;259;53.304;9.816;2023-02-15T17:23:57;16.60;60.30
546;DHT22;259;53.304;9.816;2023-02-15T17:26:36;16.60;60.30
546;DHT22;259;53.304;9.816;2023-02-15T17:29:17;16.60;60.40
546;DHT22;259;53.304;9.816;2023-02-15T17:31:49;16.60;60.40
546;DHT22;259;53.304;9.816;2023-02-15T17:34:46;16.60;60.40
546;DHT22;259;53.304;9.816;2023-02-15T17:40:07;16.50;60.30
546;DHT22;259;53.304;9.816;2023-02-15T17:42:40;16.50;60.40
546;DHT22;259;53.304;9.816;2023-02-15T17:45:06;16.50;60.40
546;DHT22;259;53.304;9.816;2023-02-15T17:47:32;16.50;60.40
546;DHT22;259;53.304;9.816;2023-02-15T17:49:58;16.50;60.40
546;DHT22;259;53.304;9.816;2023-02-15T17:52:28;16.50;60.40
546;DHT22;259;53.304;9.816;2023-02-15T17:54:54;16.50;60.50
546;DHT22;259;53.304;9.816;2023-02-15T17:57:38;16.40;60.40
546;DHT22;259;53.304;9.816;2023-02-15T18:00:05;16.40;60.50
546;DHT22;259;53.304;9.816;2023-02-15T18:02:50;16.40;60.50
546;DHT22;259;53.304;9.816;2023-02-15T18:05:35;16.40;60.50
546;DHT22;259;53.304;9.816;2023-02-15T18:08:22;16.40;60.60
546;DHT22;259;53.304;9.816;2023-02-15T18:11:09;16.40;60.60
546;DHT22;259;53.304;9.816;2023-02-15T18:13:53;16.40;60.60
546;DHT22;259;53.304;9.816;2023-02-15T18:16:23;16.30;60.50
546;DHT22;259;53.304;9.816;2023-02-15T18:18:51;16.30;60.50
546;DHT22;259;53.304;9.816;2023-02-15T18:21:18;16.30;60.50
546;DHT22;259;53.304;9.816;2023-02-15T18:23:44;16.30;60.60
546;DHT22;259;53.304;9.816;2023-02-15T18:26:18;16.30;60.60
546;DHT22;259;53.304;9.816;2023-02-15T18:28:45;16.30;60.60
546;DHT22;259;53.304;9.816;2023-02-15T18:31:11;16.20;60.50
546;DHT22;259;53.304;9.816;2023-02-15T18:33:43;16.20;60.60
546;DHT22;259;53.304;9.816;2023-02-15T18:36:26;16.20;60.60
546;DHT22;259;53.304;9.816;2023-02-15T18:38:55;16.20;60.70
546;DHT22;259;53.304;9.816;2023-02-15T18:41:21;16.20;61.40
546;DHT22;259;53.304;9.816;2023-02-15T18:43:47;16.20;60.70
546;DHT22;259;53.304;9.816;2023-02-15T18:46:14;16.20;60.70
546;DHT22;259;53.304;9.816;2023-02-15T18:48:40;16.20;60.70
546;DHT22;259;53.304;9.816;2023-02-15T18:51:18;16.10;60.60
546;DHT22;259;53.304;9.816;2023-02-15T18:53:46;16.10;60.60
546;DHT22;259;53.304;9.816;2023-02-15T18:56:17;16.10;60.60
546;DHT22;259;53.304;9.816;2023-02-15T18:58:45;16.10;60.70
546;DHT22;259;53.304;9.816;2023-02-15T19:01:16;16.10;60.80
546;DHT22;259;53.304;9.816;2023-02-15T19:03:49;16.10;60.80
546;DHT22;259;53.304;9.816;2023-02-15T19:06:18;16.10;60.80
546;DHT22;259;53.304;9.816;2023-02-15T19:08:47;16.00;60.80
546;DHT22;259;53.304;9.816;2023-02-15T19:11:22;16.00;60.80
546;DHT22;259;53.304;9.816;2023-02-15T19:13:50;16.00;60.80
546;DHT22;259;53.304;9.816;2023-02-15T19:16:29;16.00;60.70
546;DHT22;259;53.304;9.816;2023-02-15T19:18:57;16.00;60.80
546;DHT22;259;53.304;9.816;2023-02-15T19:21:23;16.00;60.70
546;DHT22;259;53.304;9.816;2023-02-15T19:23:56;16.00;60.80
546;DHT22;259;53.304;9.816;2023-02-15T19:26:24;16.00;61.50
546;DHT22;259;53.304;9.816;2023-02-15T19:28:50;15.90;60.70
546;DHT22;259;53.304;9.816;2023-02-15T19:31:16;15.90;60.70
546;DHT22;259;53.304;9.816;2023-02-15T19:33:42;15.90;60.70
546;DHT22;259;53.304;9.816;2023-02-15T19:36:16;15.90;60.80
546;DHT22;259;53.304;9.816;2023-02-15T19:38:45;15.90;60.70
546;DHT22;259;53.304;9.816;2023-02-15T19:41:19;15.90;60.80
546;DHT22;259;53.304;9.816;2023-02-15T19:43:51;15.90;60.80
546;DHT22;259;53.304;9.816;2023-02-15T19:46:20;15.80;60.70
546;DHT22;259;53.304;9.816;2023-02-15T19:48:49;15.90;60.90
546;DHT22;259;53.304;9.816;2023-02-15T19:51:15;15.80;60.70
546;DHT22;259;53.304;9.816;2023-02-15T19:53:41;15.80;60.80
546;DHT22;259;53.304;9.816;2023-02-15T19:56:12;15.80;60.80
546;DHT22;259;53.304;9.816;2023-02-15T19:58:41;15.80;60.80
546;DHT22;259;53.304;9.816;2023-02-15T20:01:07;15.80;60.80
546;DHT22;259;53.304;9.816;2023-02-15T20:03:34;15.70;60.70
546;DHT22;259;53.304;9.816;2023-02-15T20:06:00;15.70;60.70
546;DHT22;259;53.304;9.816;2023-02-15T20:08:27;15.70;60.70
546;DHT22;259;53.304;9.816;2023-02-15T20:10:53;15.70;60.70
546;DHT22;259;53.304;9.816;2023-02-15T20:13:19;15.70;60.80
546;DHT22;259;53.304;9.816;2023-02-15T20:15:46;15.70;60.80
546;DHT22;259;53.304;9.816;2023-02-15T20:18:12;15.70;60.80
546;DHT22;259;53.304;9.816;2023-02-15T20:20:41;15.70;61.60
546;DHT22;259;53.304;9.816;2023-02-15T20:23:35;15.60;60.70
546;DHT22;259;53.304;9.816;2023-02-15T20:26:16;15.60;60.80
546;DHT22;259;53.304;9.816;2023-02-15T20:28:43;15.60;60.80
546;DHT22;259;53.304;9.816;2023-02-15T20:31:14;15.60;60.80